createdAt,value
2023-03-22T00:00:46.533Z,100086.00
2023-03-22T00:03:12.913Z,100093.53
2023-03-22T00:05:40.225Z,100087.31
2023-03-22T00:08:07.206Z,100087.00
2023-03-22T00:10:34.753Z,100081.59
2023-03-22T00:13:01.109Z,100085.34
2023-03-22T00:15:29.596Z,100076.66
2023-03-22T00:17:59.101Z,100078.31
2023-03-22T00:20:26.386Z,100074.81
2023-03-22T00:22:52.775Z,100074.22
2023-03-22T00:25:19.212Z,100075.06
2023-03-22T00:27:45.646Z,100082.06
2023-03-22T00:30:12.212Z,100071.28
2023-03-22T00:32:39.079Z,100073.97
2023-03-22T00:35:05.958Z,100071.53
2023-03-22T00:37:34.399Z,100085.81
2023-03-22T00:40:01.309Z,100071.28
2023-03-22T00:42:27.652Z,100076.66
2023-03-22T00:44:54.061Z,100077.75
2023-03-22T00:47:20.464Z,100077.50
2023-03-22T00:49:46.832Z,100067.53
2023-03-22T00:52:13.218Z,100064.59
2023-03-22T00:54:39.668Z,100060.50
2023-03-22T00:57:06.098Z,100065.44
2023-03-22T00:59:32.498Z,100053.59
2023-03-22T01:01:59.122Z,100050.34
2023-03-22T01:04:26.339Z,100052.53
2023-03-22T01:06:59.221Z,100040.97
2023-03-22T01:09:28.362Z,100037.44
2023-03-22T01:11:56.306Z,100038.03
2023-03-22T01:14:23.364Z,100032.63
2023-03-22T01:16:50.321Z,100032.63
2023-03-22T01:19:17.866Z,100032.63
2023-03-22T01:21:44.249Z,100028.91
2023-03-22T01:24:10.636Z,100021.88
2023-03-22T01:26:37.727Z,100020.22
2023-03-22T01:29:04.152Z,100018.94
2023-03-22T01:31:30.631Z,100025.63
2023-03-22T01:33:56.988Z,100011.59
2023-03-22T01:36:23.377Z,100015.88
2023-03-22T01:38:49.773Z,100023.97
2023-03-22T01:41:16.804Z,100000.81
2023-03-22T01:43:43.210Z,100013.69
2023-03-22T01:46:09.664Z,100002.91
2023-03-22T01:48:42.158Z,100001.28
2023-03-22T01:51:10.567Z,100011.25
2023-03-22T01:53:41.117Z,100006.66
2023-03-22T01:56:07.910Z,99990.50
2023-03-22T01:58:35.961Z,100004.56
2023-03-22T02:01:03.896Z,99992.16
2023-03-22T02:03:45.933Z,99980.31
2023-03-22T02:06:12.384Z,99994.59
2023-03-22T02:08:40.817Z,99986.50
2023-03-22T02:11:07.630Z,99987.91
2023-03-22T02:13:52.736Z,99977.13
2023-03-22T02:16:29.809Z,99984.97
2023-03-22T02:19:15.304Z,99983.00
2023-03-22T02:22:00.181Z,99970.22
2023-03-22T02:24:46.300Z,99978.03
2023-03-22T02:27:41.968Z,99970.22
2023-03-22T02:30:11.585Z,99969.16
2023-03-22T02:32:37.945Z,99972.91
2023-03-22T02:35:07.394Z,99969.16
2023-03-22T02:37:33.829Z,99970.81
2023-03-22T02:40:10.689Z,99967.06
2023-03-22T02:42:48.554Z,99970.81
2023-03-22T02:45:18.097Z,99963.78
2023-03-22T02:47:54.567Z,99959.19
2023-03-22T02:50:40.165Z,99970.81
2023-03-22T02:53:09.817Z,99967.50
2023-03-22T02:55:48.916Z,99953.81
2023-03-22T02:58:18.075Z,99962.13
2023-03-22T03:00:46.544Z,99953.00
2023-03-22T03:03:18.227Z,99969.75
2023-03-22T03:05:51.031Z,99957.91
2023-03-22T03:08:18.086Z,99974.94
2023-03-22T03:10:45.141Z,99956.28
2023-03-22T03:13:15.821Z,99965.97
2023-03-22T03:15:43.920Z,99967.63
2023-03-22T03:18:26.395Z,99961.19
2023-03-22T03:21:04.534Z,99956.59
2023-03-22T03:23:39.972Z,99965.25
2023-03-22T03:26:20.216Z,99963.06
2023-03-22T03:28:52.282Z,99953.09
2023-03-22T03:31:28.487Z,99956.94
2023-03-22T03:33:59.706Z,99954.00
2023-03-22T03:36:26.822Z,99950.00
2023-03-22T03:38:54.647Z,99947.31
2023-03-22T03:41:23.691Z,99948.94
2023-03-22T03:43:51.373Z,99961.38
2023-03-22T03:46:17.866Z,99950.59
2023-03-22T03:48:47.778Z,99957.59
2023-03-22T03:51:14.155Z,99944.97
2023-03-22T03:53:40.509Z,99949.28
2023-03-22T03:56:07.199Z,99949.75
2023-03-22T03:58:33.555Z,99939.81
2023-03-22T04:00:59.965Z,99946.00
2023-03-22T04:03:26.348Z,99936.88
2023-03-22T04:05:52.958Z,99939.31
2023-03-22T04:08:19.385Z,99933.94
2023-03-22T04:10:49.474Z,99946.59
2023-03-22T04:13:15.880Z,99924.22
2023-03-22T04:15:42.371Z,99936.88
2023-03-22T04:18:11.300Z,99917.53
2023-03-22T04:20:41.801Z,99923.16
2023-03-22T04:23:11.075Z,99925.84
2023-03-22T04:25:38.074Z,99916.72
2023-03-22T04:28:04.970Z,99911.78
2023-03-22T04:30:36.441Z,99918.28
2023-03-22T04:33:08.740Z,99911.78
2023-03-22T04:35:35.423Z,99910.75
2023-03-22T04:38:02.200Z,99906.19
2023-03-22T04:40:31.707Z,99900.47
2023-03-22T04:42:58.971Z,99902.91
2023-03-22T04:45:29.346Z,99893.19
2023-03-22T04:47:56.284Z,99913.94
2023-03-22T04:50:22.952Z,99907.50
2023-03-22T04:52:50.052Z,99904.81
2023-03-22T04:55:16.739Z,99915.56
2023-03-22T04:57:43.244Z,99902.34
2023-03-22T05:00:10.060Z,99900.47
2023-03-22T05:02:41.076Z,99900.47
2023-03-22T05:05:07.822Z,99902.09
2023-03-22T05:07:34.240Z,99902.34
2023-03-22T05:10:00.685Z,99900.47
2023-03-22T05:12:27.130Z,99903.16
2023-03-22T05:14:53.542Z,99901.75
2023-03-22T05:17:20.094Z,99904.22
2023-03-22T05:19:46.568Z,99901.75
2023-03-22T05:22:14.016Z,99903.41
2023-03-22T05:24:40.860Z,99907.97
2023-03-22T05:27:07.313Z,99890.75
2023-03-22T05:29:37.068Z,99901.75
2023-03-22T05:32:04.140Z,99908.53
2023-03-22T05:34:35.677Z,99897.78
2023-03-22T05:37:02.697Z,99906.66
2023-03-22T05:39:29.154Z,99914.50
2023-03-22T05:41:55.805Z,99914.28
2023-03-22T05:44:22.189Z,99912.63
2023-03-22T05:46:48.686Z,99918.56
2023-03-22T05:49:15.436Z,99909.69
2023-03-22T05:51:42.712Z,99908.63
2023-03-22T05:54:09.733Z,99912.38
2023-03-22T05:56:36.181Z,99902.19
2023-03-22T05:59:03.322Z,99906.50
2023-03-22T06:01:29.659Z,99911.63
2023-03-22T06:03:56.045Z,99904.94
2023-03-22T06:06:22.381Z,99903.88
2023-03-22T06:08:48.731Z,99895.81
2023-03-22T06:11:15.502Z,99881.28
2023-03-22T06:13:41.947Z,99885.63
2023-03-22T06:16:08.457Z,99877.28
2023-03-22T06:18:34.903Z,99880.78
2023-03-22T06:21:01.566Z,99877.84
2023-03-22T06:23:28.155Z,99879.22
2023-03-22T06:25:54.855Z,99883.47
2023-03-22T06:28:21.586Z,99882.75
2023-03-22T06:30:48.220Z,99879.22
2023-03-22T06:33:14.715Z,99887.41
2023-03-22T06:35:41.229Z,99884.44
2023-03-22T06:38:07.765Z,99887.41
2023-03-22T06:40:35.805Z,99889.66
2023-03-22T06:43:05.659Z,99896.69
2023-03-22T06:45:33.606Z,99894.09
2023-03-22T06:48:01.019Z,99886.59
2023-03-22T06:50:28.215Z,99881.78
2023-03-22T06:52:55.000Z,99882.38
2023-03-22T06:55:21.426Z,99880.22
2023-03-22T06:57:47.771Z,99885.63
2023-03-22T07:00:14.459Z,99890.44
2023-03-22T07:02:41.007Z,99883.84
2023-03-22T07:05:07.591Z,99893.22
2023-03-22T07:07:33.931Z,99885.19
2023-03-22T07:10:00.427Z,99884.97
2023-03-22T07:12:26.777Z,99887.16
2023-03-22T07:14:53.283Z,99876.63
2023-03-22T07:17:19.638Z,99871.53
2023-03-22T07:19:46.032Z,99854.88
2023-03-22T07:22:12.432Z,99855.69
2023-03-22T07:24:50.326Z,99855.69
2023-03-22T07:27:22.424Z,99847.91
2023-03-22T07:29:48.798Z,99847.66
2023-03-22T07:32:16.453Z,99853.13
2023-03-22T07:34:42.994Z,99847.72
2023-03-22T07:37:09.577Z,99860.22
2023-03-22T07:39:36.037Z,99855.63
2023-03-22T07:42:02.819Z,99852.25
2023-03-22T07:44:29.419Z,99856.06
2023-03-22T07:46:56.382Z,99844.28
2023-03-22T07:49:22.773Z,99852.44
2023-03-22T07:51:49.138Z,99861.16
2023-03-22T07:54:30.612Z,99851.53
2023-03-22T07:56:59.398Z,99852.72
2023-03-22T07:59:25.998Z,99858.50
2023-03-22T08:01:52.507Z,99858.84
2023-03-22T08:04:20.964Z,99853.59
2023-03-22T08:06:47.382Z,99857.47
2023-03-22T08:09:13.935Z,99852.09
2023-03-22T08:11:40.530Z,99858.09
2023-03-22T08:14:06.971Z,99851.16
2023-03-22T08:16:33.621Z,99852.03
2023-03-22T08:19:00.805Z,99860.47
2023-03-22T08:21:27.480Z,99854.06
2023-03-22T08:23:53.909Z,99848.16
2023-03-22T08:26:20.432Z,99842.50
2023-03-22T08:28:46.851Z,99838.47
2023-03-22T08:31:15.321Z,99837.97
2023-03-22T08:33:42.385Z,99838.00
2023-03-22T08:36:10.442Z,99838.53
2023-03-22T08:38:37.229Z,99844.03
2023-03-22T08:41:03.703Z,99833.75
2023-03-22T08:43:30.218Z,99826.19
2023-03-22T08:45:57.179Z,99825.16
2023-03-22T08:48:23.749Z,99818.72
2023-03-22T08:50:50.487Z,99824.19
2023-03-22T08:53:16.951Z,99819.34
2023-03-22T08:55:44.976Z,99804.22
2023-03-22T08:58:14.966Z,99808.31
2023-03-22T09:00:48.752Z,99806.72
2023-03-22T09:03:16.309Z,99795.34
2023-03-22T09:05:42.916Z,99797.81
2023-03-22T09:08:18.173Z,99815.16
2023-03-22T09:10:47.975Z,99792.16
2023-03-22T09:13:16.632Z,99790.53
2023-03-22T09:15:44.110Z,99787.56
2023-03-22T09:18:11.787Z,99786.22
2023-03-22T09:20:38.853Z,99782.19
2023-03-22T09:23:05.879Z,99778.66
2023-03-22T09:25:32.459Z,99766.50
2023-03-22T09:27:58.915Z,99786.53
2023-03-22T09:30:25.332Z,99778.69
2023-03-22T09:32:51.860Z,99770.84
2023-03-22T09:35:18.610Z,99784.66
2023-03-22T09:37:45.668Z,99766.22
2023-03-22T09:40:12.335Z,99768.16
2023-03-22T09:42:42.296Z,99774.66
2023-03-22T09:45:13.458Z,99774.09
2023-03-22T09:47:45.056Z,99782.25
2023-03-22T09:50:18.804Z,99774.69
2023-03-22T09:52:45.298Z,99753.03
2023-03-22T09:55:38.465Z,99740.56
2023-03-22T09:58:19.882Z,99747.06
2023-03-22T10:00:49.301Z,99738.66
2023-03-22T10:03:25.909Z,99753.56
2023-03-22T10:05:55.458Z,99752.47
2023-03-22T10:08:24.856Z,99748.13
2023-03-22T10:10:52.724Z,99738.88
2023-03-22T10:13:39.918Z,99736.19
2023-03-22T10:16:23.916Z,99743.50
2023-03-22T10:18:52.070Z,99742.41
2023-03-22T10:21:19.459Z,99739.69
2023-03-22T10:23:51.907Z,99740.75
2023-03-22T10:26:20.092Z,99749.44
2023-03-22T10:28:49.701Z,99744.53
2023-03-22T10:31:17.980Z,99744.00
2023-03-22T10:33:58.781Z,99749.94
2023-03-22T10:36:31.234Z,99721.44
2023-03-22T10:39:00.779Z,99740.41
2023-03-22T10:41:28.583Z,99725.22
2023-03-22T10:43:57.308Z,99742.00
2023-03-22T10:46:25.715Z,99724.63
2023-03-22T10:48:57.155Z,99720.75
2023-03-22T10:51:34.263Z,99723.97
2023-03-22T10:54:02.270Z,99719.03
2023-03-22T10:56:28.851Z,99718.97
2023-03-22T10:58:57.216Z,99722.16
2023-03-22T11:01:26.705Z,99739.47
2023-03-22T11:03:56.422Z,99720.94
2023-03-22T11:06:24.271Z,99721.94
2023-03-22T11:08:54.606Z,99715.63
2023-03-22T11:11:25.669Z,99712.00
2023-03-22T11:13:59.015Z,99716.03
2023-03-22T11:16:25.819Z,99718.41
2023-03-22T11:18:52.293Z,99709.09
2023-03-22T11:21:31.683Z,99692.44
2023-03-22T11:24:03.732Z,99702.72
2023-03-22T11:26:37.285Z,99696.41
2023-03-22T11:29:11.858Z,99686.59
2023-03-22T11:31:50.747Z,99708.06
2023-03-22T11:34:19.242Z,99694.22
2023-03-22T11:39:33.864Z,99689.28
2023-03-22T11:42:03.761Z,99685.06
2023-03-22T11:44:34.013Z,99679.13
2023-03-22T11:47:01.414Z,99679.03
2023-03-22T11:49:35.493Z,99672.56
2023-03-22T11:52:07.724Z,99675.78
2023-03-22T11:54:35.757Z,99679.63
2023-03-22T11:57:09.680Z,99687.81
2023-03-22T11:59:37.699Z,99683.44
2023-03-22T12:02:09.624Z,99687.25
2023-03-22T12:04:38.045Z,99702.47
2023-03-22T12:07:06.842Z,99689.47
2023-03-22T12:09:48.664Z,99705.25
2023-03-22T12:12:21.661Z,99699.75
2023-03-22T12:14:51.864Z,99704.16
2023-03-22T12:17:37.701Z,99689.50
2023-03-22T12:20:07.389Z,99685.97
2023-03-22T12:22:45.821Z,99692.78
2023-03-22T12:25:17.533Z,99712.94
2023-03-22T12:27:47.399Z,99687.88
2023-03-22T12:30:16.337Z,99683.78
2023-03-22T12:32:49.020Z,99676.66
2023-03-22T12:35:18.501Z,99689.38
2023-03-22T12:37:47.595Z,99683.09
2023-03-22T12:40:28.517Z,99712.13
2023-03-22T12:43:01.256Z,99692.59
2023-03-22T12:45:28.766Z,99684.94
2023-03-22T12:48:16.225Z,99700.16
2023-03-22T12:50:48.793Z,99669.19
2023-03-22T12:53:16.468Z,99683.34
2023-03-22T12:55:43.925Z,99675.44
2023-03-22T12:58:12.945Z,99684.19
2023-03-22T13:00:45.364Z,99693.13
2023-03-22T13:03:18.216Z,99687.78
2023-03-22T13:05:46.114Z,99680.72
2023-03-22T13:08:13.068Z,99675.91
2023-03-22T13:10:41.931Z,99682.38
2023-03-22T13:13:08.719Z,99693.03
2023-03-22T13:15:42.070Z,99674.28
2023-03-22T13:18:27.487Z,99684.75
2023-03-22T13:21:13.349Z,99681.19
2023-03-22T13:23:53.430Z,99669.56
2023-03-22T13:26:22.173Z,99664.13
2023-03-22T13:28:59.154Z,99667.94
2023-03-22T13:31:36.086Z,99652.25
2023-03-22T13:34:04.534Z,99644.69
2023-03-22T13:36:32.071Z,99641.13
2023-03-22T13:39:00.066Z,99635.69
2023-03-22T13:41:35.940Z,99633.28
2023-03-22T13:44:19.067Z,99637.06
2023-03-22T13:46:49.243Z,99639.53
2023-03-22T13:49:20.765Z,99640.03
2023-03-22T13:51:47.820Z,99635.69
2023-03-22T13:54:14.973Z,99644.69
2023-03-22T13:56:53.042Z,99638.66
2023-03-22T13:59:33.953Z,99637.56
2023-03-22T14:02:10.920Z,99632.13
2023-03-22T14:04:41.070Z,99638.06
2023-03-22T14:07:27.770Z,99634.31
2023-03-22T14:10:02.613Z,99631.09
2023-03-22T14:12:47.655Z,99649.53
2023-03-22T14:15:18.926Z,99639.75
2023-03-22T14:17:50.605Z,99653.38
2023-03-22T14:20:19.245Z,99665.59
